createdAt,value
2019-04-28T00:00:14.889Z,16.30
2019-04-28T00:01:15.029Z,20.40
2019-04-28T00:02:14.941Z,19.10
2019-04-28T00:03:14.808Z,18.20
2019-04-28T00:04:14.948Z,19.70
2019-04-28T00:05:14.738Z,18.90
2019-04-28T00:06:14.869Z,17.30
2019-04-28T00:07:14.700Z,17.20
2019-04-28T00:08:14.779Z,18.10
2019-04-28T00:09:14.638Z,23.70
2019-04-28T00:10:14.788Z,18.90
2019-04-28T00:11:14.578Z,17.70
2019-04-28T00:12:14.702Z,18.00
2019-04-28T00:13:14.532Z,18.80
2019-04-28T00:14:14.498Z,18.90
2019-04-28T00:15:14.623Z,17.50
2019-04-28T00:16:14.459Z,20.00
2019-04-28T00:17:14.639Z,20.40
2019-04-28T00:18:14.388Z,21.80
2019-04-28T00:19:14.549Z,20.30
2019-04-28T00:20:14.338Z,20.50
2019-04-28T00:21:14.458Z,17.00
2019-04-28T00:22:14.278Z,20.10
2019-04-28T00:23:14.368Z,14.30
2019-04-28T00:24:14.228Z,16.20
2019-04-28T00:25:14.290Z,18.70
2019-04-28T00:26:14.166Z,16.70
2019-04-28T00:27:14.201Z,15.80
2019-04-28T00:28:14.107Z,21.60
2019-04-28T00:29:14.095Z,16.70
2019-04-28T00:30:14.109Z,19.50
2019-04-28T00:31:14.031Z,16.00
2019-04-28T00:32:14.135Z,19.40
2019-04-28T00:33:13.980Z,17.80
2019-04-28T00:34:13.959Z,19.10
2019-04-28T00:35:13.936Z,19.80
2019-04-28T00:36:13.948Z,20.80
2019-04-28T00:37:13.882Z,19.40
2019-04-28T00:38:13.967Z,16.60
2019-04-28T00:39:13.818Z,18.60
2019-04-28T00:40:13.877Z,20.40
2019-04-28T00:41:13.769Z,19.50
2019-04-28T00:42:13.788Z,17.70
2019-04-28T00:43:13.707Z,19.80
2019-04-28T00:44:13.798Z,17.80
2019-04-28T00:45:13.706Z,15.30
2019-04-28T00:46:13.616Z,18.20
2019-04-28T00:47:13.729Z,16.80
2019-04-28T00:48:13.583Z,20.20
2019-04-28T00:49:13.629Z,19.60
2019-04-28T00:50:13.666Z,17.40
2019-04-28T00:51:13.488Z,18.90
2019-04-28T00:52:13.549Z,18.30
2019-04-28T00:53:13.428Z,17.90
2019-04-28T00:54:13.470Z,21.40
2019-04-28T00:55:13.383Z,18.40
2019-04-28T00:56:13.358Z,22.80
2019-04-28T00:57:13.379Z,19.20
2019-04-28T00:58:13.308Z,20.40
2019-04-28T00:59:13.409Z,19.20
2019-04-28T01:00:13.236Z,19.30
2019-04-28T01:01:13.217Z,18.30
2019-04-28T01:02:13.201Z,18.50
2019-04-28T01:03:13.218Z,23.10
2019-04-28T01:04:13.127Z,18.00
2019-04-28T01:05:13.235Z,19.90
2019-04-28T01:06:14.112Z,18.70
2019-04-28T01:07:13.060Z,17.30
2019-04-28T01:08:13.159Z,17.90
2019-04-28T01:09:13.003Z,17.70
2019-04-28T01:10:13.068Z,24.00
2019-04-28T01:11:12.938Z,23.20
2019-04-28T01:12:12.976Z,18.20
2019-04-28T01:13:12.893Z,22.30
2019-04-28T01:14:12.986Z,18.30
2019-04-28T01:15:12.832Z,24.30
2019-04-28T01:16:12.907Z,19.10
2019-04-28T01:17:12.767Z,20.50
2019-04-28T01:18:12.816Z,22.40
2019-04-28T01:19:12.717Z,21.70
2019-04-28T01:20:12.826Z,18.10
2019-04-28T01:21:12.657Z,21.70
2019-04-28T01:22:12.649Z,18.40
2019-04-28T01:23:12.607Z,15.80
2019-04-28T01:24:12.656Z,21.10
2019-04-28T01:25:12.556Z,19.20
2019-04-28T01:26:12.665Z,18.80
2019-04-28T01:27:12.499Z,22.30
2019-04-28T01:28:12.471Z,18.70
2019-04-28T01:29:12.589Z,21.20
2019-04-28T01:30:12.409Z,19.60
2019-04-28T01:31:12.497Z,17.20
2019-04-28T01:32:12.362Z,20.50
2019-04-28T01:33:12.338Z,19.90
2019-04-28T01:34:12.308Z,19.60
2019-04-28T01:35:12.431Z,16.50
2019-04-28T01:36:12.248Z,19.40
2019-04-28T01:37:12.339Z,22.00
2019-04-28T01:38:12.338Z,16.70
2019-04-28T01:39:12.246Z,21.20
2019-04-28T01:40:12.148Z,21.50
2019-04-28T01:41:12.267Z,18.10
2019-04-28T01:42:12.099Z,20.80
2019-04-28T01:43:12.184Z,20.10
2019-04-28T01:44:12.025Z,20.30
2019-04-28T01:45:12.186Z,19.90
2019-04-28T01:46:11.989Z,22.10
2019-04-28T01:47:12.108Z,21.80
2019-04-28T01:48:11.927Z,20.40
2019-04-28T01:49:11.898Z,21.70
2019-04-28T01:50:11.868Z,18.60
2019-04-28T01:51:12.032Z,21.80
2019-04-28T01:52:11.808Z,18.10
2019-04-28T01:53:11.982Z,15.80
2019-04-28T01:54:11.865Z,23.40
2019-04-28T01:55:11.849Z,19.60
2019-04-28T01:56:11.705Z,18.90
2019-04-28T01:57:11.886Z,19.40
2019-04-28T01:58:11.638Z,23.10
2019-04-28T01:59:11.776Z,17.70
2019-04-28T02:00:22.305Z,23.70
2019-04-28T02:01:11.736Z,17.20
2019-04-28T02:02:11.541Z,16.80
2019-04-28T02:03:11.718Z,18.70
2019-04-28T02:04:11.476Z,16.50
2019-04-28T02:05:11.457Z,20.20
2019-04-28T02:06:11.428Z,16.30
2019-04-28T02:07:11.537Z,18.80
2019-04-28T02:08:11.379Z,17.20
2019-04-28T02:09:11.537Z,19.00
2019-04-28T02:10:11.320Z,18.30
2019-04-28T02:11:11.467Z,18.80
2019-04-28T02:12:11.262Z,18.20
2019-04-28T02:13:11.469Z,16.50
2019-04-28T02:14:11.200Z,15.70
2019-04-28T02:15:11.397Z,18.60
2019-04-28T02:16:11.146Z,19.30
2019-04-28T02:17:11.299Z,17.40
2019-04-28T02:18:11.100Z,17.60
2019-04-28T02:19:11.218Z,15.20
2019-04-28T02:20:11.029Z,17.90
2019-04-28T02:21:11.012Z,21.10
2019-04-28T02:22:10.980Z,17.80
2019-04-28T02:23:11.136Z,19.30
2019-04-28T02:24:10.928Z,19.30
2019-04-28T02:25:11.203Z,20.40
2019-04-28T02:26:10.882Z,17.00
2019-04-28T02:27:11.074Z,18.60
2019-04-28T02:28:11.844Z,19.70
2019-04-28T02:29:10.868Z,19.70
2019-04-28T02:30:11.666Z,15.90
2019-04-28T02:31:11.451Z,17.80
2019-04-28T02:32:10.700Z,16.30
2019-04-28T02:33:11.194Z,17.00
2019-04-28T02:34:11.235Z,17.30
2019-04-28T02:35:10.952Z,14.90
2019-04-28T02:36:12.359Z,18.70
2019-04-28T02:37:11.260Z,17.50
2019-04-28T02:38:11.522Z,18.80
2019-04-28T02:39:10.742Z,17.00
2019-04-28T02:40:10.909Z,19.20
2019-04-28T02:41:11.178Z,18.80
2019-04-28T02:42:11.079Z,19.00
2019-04-28T02:43:11.396Z,19.40
2019-04-28T02:44:10.493Z,19.20
2019-04-28T02:45:11.728Z,18.80
2019-04-28T02:46:10.602Z,18.80
2019-04-28T02:47:11.159Z,16.30
2019-04-28T02:48:11.119Z,20.60
2019-04-28T02:49:10.400Z,16.30
2019-04-28T02:50:11.343Z,18.90
2019-04-28T02:51:11.022Z,16.50
2019-04-28T02:52:10.691Z,18.90
2019-04-28T02:53:10.994Z,16.80
2019-04-28T02:54:10.442Z,15.70
2019-04-28T02:55:11.323Z,16.30
2019-04-28T02:56:11.307Z,15.70
2019-04-28T02:57:10.746Z,14.00
2019-04-28T02:58:10.760Z,17.10
2019-04-28T02:59:10.996Z,16.10
2019-04-28T03:00:10.467Z,19.30
2019-04-28T03:01:21.393Z,17.40
2019-04-28T03:02:10.523Z,17.10
2019-04-28T03:03:11.023Z,16.90
2019-04-28T03:04:12.171Z,17.50
2019-04-28T03:05:11.596Z,18.10
2019-04-28T03:06:10.817Z,17.50
2019-04-28T03:07:11.569Z,16.90
2019-04-28T03:08:11.158Z,16.40
2019-04-28T03:09:10.609Z,17.60
2019-04-28T03:10:11.062Z,18.60
2019-04-28T03:11:10.708Z,15.20
2019-04-28T03:12:11.310Z,16.40
2019-04-28T03:13:12.799Z,16.30
2019-04-28T03:14:11.080Z,18.60
2019-04-28T03:15:10.355Z,19.30
2019-04-28T03:16:10.794Z,18.60
2019-04-28T03:17:10.966Z,19.00
2019-04-28T03:18:11.483Z,17.00
2019-04-28T03:19:10.954Z,18.80
2019-04-28T03:20:11.003Z,17.60
2019-04-28T03:21:11.442Z,18.80
2019-04-28T03:22:11.482Z,18.60
2019-04-28T03:23:12.253Z,16.20
2019-04-28T03:24:10.955Z,18.00
2019-04-28T03:25:10.957Z,17.50
2019-04-28T03:26:11.191Z,18.50
2019-04-28T03:27:10.814Z,15.90
2019-04-28T03:28:11.806Z,15.20
2019-04-28T03:29:10.837Z,17.60
2019-04-28T03:30:12.752Z,19.70
2019-04-28T03:31:36.882Z,17.50
2019-04-28T03:32:28.264Z,18.10
2019-04-28T03:33:13.310Z,17.70
2019-04-28T03:34:12.578Z,14.50
2019-04-28T03:35:12.766Z,17.30
2019-04-28T03:36:14.694Z,14.00
2019-04-28T03:37:11.296Z,16.70
2019-04-28T03:38:10.745Z,15.70
2019-04-28T03:39:11.019Z,15.00
2019-04-28T03:40:10.867Z,16.60
2019-04-28T03:41:11.199Z,17.50
2019-04-28T03:42:11.466Z,16.50
2019-04-28T03:43:10.438Z,18.30
2019-04-28T03:44:11.277Z,18.20
2019-04-28T03:45:11.271Z,19.60
2019-04-28T03:46:10.532Z,14.70
2019-04-28T03:47:10.625Z,18.20
2019-04-28T03:48:11.332Z,15.90
2019-04-28T03:49:10.811Z,16.20
2019-04-28T03:50:10.449Z,16.80
2019-04-28T03:51:10.795Z,17.70
2019-04-28T03:52:10.735Z,19.90
2019-04-28T03:53:11.009Z,17.00
2019-04-28T03:54:10.377Z,17.30
2019-04-28T03:55:08.398Z,14.10
2019-04-28T03:56:11.179Z,16.40
2019-04-28T03:57:11.115Z,16.00
2019-04-28T03:58:10.381Z,17.60
2019-04-28T03:59:10.371Z,17.00
2019-04-28T04:00:10.848Z,14.80
2019-04-28T04:01:10.766Z,17.30
2019-04-28T04:02:10.979Z,16.00
2019-04-28T04:03:10.671Z,19.50
2019-04-28T04:04:08.140Z,20.20
2019-04-28T04:05:10.899Z,18.10
2019-04-28T04:06:10.379Z,15.40
2019-04-28T04:07:08.077Z,16.50
2019-04-28T04:08:10.675Z,16.70
2019-04-28T04:09:08.088Z,16.20
2019-04-28T04:10:11.176Z,20.50
2019-04-28T04:11:10.633Z,17.10
2019-04-28T04:12:07.917Z,19.30
2019-04-28T04:13:10.748Z,17.60
2019-04-28T04:14:07.869Z,19.80
2019-04-28T04:15:07.927Z,18.00
2019-04-28T04:16:07.808Z,15.30
2019-04-28T04:17:07.839Z,18.70
2019-04-28T04:18:07.749Z,17.90
2019-04-28T04:19:10.438Z,20.10
2019-04-28T04:20:07.698Z,18.50
2019-04-28T04:21:07.779Z,14.50
2019-04-28T04:22:09.985Z,18.40
2019-04-28T04:23:07.677Z,17.20
2019-04-28T04:24:07.588Z,14.40
2019-04-28T04:25:10.173Z,14.80
2019-04-28T04:26:07.525Z,17.90
2019-04-28T04:27:07.607Z,17.20
2019-04-28T04:28:10.020Z,17.60
2019-04-28T04:29:07.438Z,18.20
2019-04-28T04:30:07.528Z,18.90
2019-04-28T04:31:10.117Z,19.00
2019-04-28T04:32:14.748Z,17.90
2019-04-28T04:33:07.337Z,19.70
2019-04-28T04:34:07.311Z,17.10
2019-04-28T04:35:07.285Z,16.20
2019-04-28T04:36:07.369Z,16.10
2019-04-28T04:37:07.221Z,17.00
2019-04-28T04:38:07.278Z,19.30
2019-04-28T04:39:07.160Z,16.30
2019-04-28T04:40:07.141Z,15.50
2019-04-28T04:41:07.198Z,15.80
2019-04-28T04:42:07.088Z,15.80
2019-04-28T04:43:07.120Z,15.50
2019-04-28T04:44:07.033Z,17.50
2019-04-28T04:45:07.003Z,15.30
2019-04-28T04:46:06.973Z,16.10
2019-04-28T04:47:07.031Z,17.40
2019-04-28T04:48:06.908Z,15.00
2019-04-28T04:49:06.950Z,18.50
2019-04-28T04:50:06.872Z,18.90
2019-04-28T04:51:06.858Z,16.70
2019-04-28T04:52:06.812Z,18.10
2019-04-28T04:53:06.874Z,14.20
2019-04-28T04:54:06.750Z,16.90
2019-04-28T04:55:06.788Z,17.20
2019-04-28T04:56:06.688Z,16.30
2019-04-28T04:57:06.700Z,16.00
2019-04-28T04:58:06.639Z,14.20
2019-04-28T04:59:06.708Z,15.80
2019-04-28T05:00:06.578Z,16.50
2019-04-28T05:01:06.578Z,15.30
2019-04-28T05:02:06.626Z,18.60
2019-04-28T05:03:06.491Z,17.70
2019-04-28T05:04:06.539Z,17.50
2019-04-28T05:05:06.436Z,17.50
2019-04-28T05:06:06.448Z,14.60
2019-04-28T05:07:06.378Z,16.10
2019-04-28T05:08:06.466Z,15.10
2019-04-28T05:09:06.327Z,16.30
2019-04-28T05:10:06.378Z,16.30
2019-04-28T05:11:06.270Z,16.30
2019-04-28T05:12:06.236Z,19.40
2019-04-28T05:13:06.219Z,13.70
2019-04-28T05:14:07.610Z,16.30
2019-04-28T05:15:06.158Z,19.20
2019-04-28T05:16:06.208Z,16.30
2019-04-28T05:17:06.221Z,13.90
2019-04-28T05:18:06.067Z,16.40
2019-04-28T05:19:06.135Z,16.60
2019-04-28T05:20:06.017Z,18.80
2019-04-28T05:21:06.046Z,14.80
2019-04-28T05:22:05.958Z,15.20
2019-04-28T05:23:05.969Z,15.60
2019-04-28T05:24:09.262Z,16.50
2019-04-28T05:25:05.877Z,18.50
2019-04-28T05:26:08.012Z,19.20
2019-04-28T05:27:05.825Z,19.30
2019-04-28T05:28:05.788Z,15.90
2019-04-28T05:29:05.787Z,17.10
2019-04-28T05:30:05.756Z,17.80
2019-04-28T05:31:05.813Z,16.40
2019-04-28T05:32:05.678Z,18.10
2019-04-28T05:33:05.661Z,13.80
2019-04-28T05:34:08.063Z,17.00
2019-04-28T05:35:05.627Z,17.40
2019-04-28T05:36:05.569Z,14.70
2019-04-28T05:37:05.655Z,15.40
2019-04-28T05:38:05.511Z,15.50
2019-04-28T05:39:05.564Z,14.60
2019-04-28T05:40:05.458Z,17.70
2019-04-28T05:41:05.467Z,14.50
2019-04-28T05:42:05.408Z,16.80
2019-04-28T05:43:05.481Z,15.60
2019-04-28T05:44:05.347Z,12.30
2019-04-28T05:45:05.387Z,13.00
2019-04-28T05:46:05.298Z,15.00
2019-04-28T05:47:05.307Z,16.30
2019-04-28T05:48:05.248Z,14.20
2019-04-28T05:49:05.218Z,14.70
2019-04-28T05:50:05.225Z,15.40
2019-04-28T05:51:05.146Z,17.30
2019-04-28T05:52:05.239Z,21.20
2019-04-28T05:53:05.087Z,14.20
2019-04-28T05:54:05.078Z,17.10
2019-04-28T05:55:05.049Z,15.90
2019-04-28T05:56:05.051Z,16.20
2019-04-28T05:57:04.988Z,20.20
2019-04-28T05:58:04.966Z,14.00
2019-04-28T05:59:04.927Z,14.10
2019-04-28T06:00:04.898Z,15.80
2019-04-28T06:01:04.997Z,17.20
2019-04-28T06:02:04.850Z,11.60
2019-04-28T06:03:04.920Z,16.20
2019-04-28T06:04:04.790Z,15.10
2019-04-28T06:05:04.768Z,15.10
2019-04-28T06:06:04.827Z,14.00
2019-04-28T06:07:04.708Z,13.90
2019-04-28T06:08:04.750Z,14.20
2019-04-28T06:09:04.658Z,14.60
2019-04-28T06:10:04.631Z,16.20
2019-04-28T06:11:04.602Z,14.60
2019-04-28T06:12:04.662Z,14.80
2019-04-28T06:13:04.539Z,12.30
2019-04-28T06:14:04.579Z,14.20
2019-04-28T06:15:04.478Z,14.60
2019-04-28T06:16:04.453Z,15.30
2019-04-28T06:17:04.487Z,14.70
2019-04-28T06:18:04.432Z,13.20
2019-04-28T06:19:04.413Z,14.30
2019-04-28T06:20:04.352Z,12.20
2019-04-28T06:21:04.317Z,17.90
2019-04-28T06:22:04.290Z,14.00
2019-04-28T06:23:04.327Z,12.70
2019-04-28T06:24:04.227Z,16.40
2019-04-28T06:25:04.362Z,12.80
2019-04-28T06:26:04.199Z,14.70
2019-04-28T06:27:04.257Z,14.90
2019-04-28T06:28:04.118Z,16.00
2019-04-28T06:29:04.167Z,15.50
2019-04-28T06:30:04.087Z,16.00
2019-04-28T06:31:04.089Z,14.40
2019-04-28T06:32:04.008Z,12.60
2019-04-28T06:33:07.929Z,14.70
2019-04-28T06:34:03.949Z,17.30
2019-04-28T06:35:04.007Z,12.00
2019-04-28T06:36:03.899Z,15.70
2019-04-28T06:37:03.867Z,12.60
2019-04-28T06:38:03.860Z,17.30
2019-04-28T06:39:03.953Z,13.90
2019-04-28T06:40:03.822Z,14.60
2019-04-28T06:41:03.871Z,16.00
2019-04-28T06:42:03.748Z,13.90
2019-04-28T06:43:03.728Z,15.30
2019-04-28T06:44:03.768Z,15.10
2019-04-28T06:45:03.658Z,14.80
2019-04-28T06:46:03.687Z,11.70
2019-04-28T06:47:03.586Z,13.10
2019-04-28T06:48:03.577Z,15.90
2019-04-28T06:49:03.609Z,16.10
2019-04-28T06:50:03.511Z,11.00
2019-04-28T06:51:03.609Z,12.50
2019-04-28T06:52:03.480Z,16.30
2019-04-28T06:53:03.444Z,13.00
2019-04-28T06:54:03.409Z,15.30
2019-04-28T06:55:03.456Z,14.10
2019-04-28T06:56:03.366Z,14.80
2019-04-28T06:57:03.360Z,12.00
2019-04-28T06:58:03.317Z,12.30
2019-04-28T06:59:03.399Z,13.60
2019-04-28T07:00:03.251Z,13.80
2019-04-28T07:01:03.273Z,11.00
2019-04-28T07:02:03.197Z,11.80
2019-04-28T07:03:03.288Z,10.80
2019-04-28T07:04:03.128Z,12.30
2019-04-28T07:05:03.199Z,13.10
2019-04-28T07:06:03.067Z,11.00
2019-04-28T07:07:03.135Z,13.00
2019-04-28T07:08:03.028Z,11.30
2019-04-28T07:09:03.026Z,11.30
2019-04-28T07:10:02.957Z,11.70
2019-04-28T07:11:03.027Z,13.40
2019-04-28T07:12:02.932Z,11.00
2019-04-28T07:13:02.948Z,13.00
2019-04-28T07:14:02.876Z,11.10
2019-04-28T07:15:02.971Z,14.20
2019-04-28T07:16:02.821Z,10.60
2019-04-28T07:17:02.869Z,13.80
2019-04-28T07:18:02.780Z,11.80
2019-04-28T07:19:02.776Z,11.90
2019-04-28T07:20:02.689Z,12.20
2019-04-28T07:21:02.709Z,13.60
2019-04-28T07:22:02.638Z,12.10
2019-04-28T07:23:02.706Z,11.80
2019-04-28T07:24:02.598Z,12.80
2019-04-28T07:25:02.587Z,9.30
2019-04-28T07:26:02.536Z,12.40
2019-04-28T07:27:02.529Z,14.00
2019-04-28T07:28:02.480Z,9.50
2019-04-28T07:29:02.547Z,13.80
2019-04-28T07:30:02.426Z,10.30
2019-04-28T07:31:02.459Z,10.50
2019-04-28T07:32:02.378Z,10.60
2019-04-28T07:33:02.373Z,13.10
2019-04-28T07:34:03.074Z,13.20
2019-04-28T07:35:02.403Z,10.50
2019-04-28T07:36:02.259Z,12.90
2019-04-28T07:37:02.324Z,9.70
2019-04-28T07:38:02.262Z,11.70
2019-04-28T07:39:02.228Z,9.30
2019-04-28T07:40:02.172Z,10.20
2019-04-28T07:41:02.128Z,11.70
2019-04-28T07:42:02.098Z,10.20
2019-04-28T07:43:02.137Z,11.90
2019-04-28T07:44:02.048Z,12.50
2019-04-28T07:45:02.050Z,11.30
2019-04-28T07:46:02.059Z,10.50
2019-04-28T07:47:01.981Z,9.90
2019-04-28T07:48:01.969Z,8.70
2019-04-28T07:49:01.930Z,11.70
2019-04-28T07:50:01.994Z,10.90
2019-04-28T07:51:01.869Z,10.50
2019-04-28T07:52:01.888Z,9.90
2019-04-28T07:53:01.818Z,11.10
2019-04-28T07:54:04.790Z,10.00
2019-04-28T07:55:01.769Z,10.80
2019-04-28T07:56:01.829Z,11.00
2019-04-28T07:57:01.718Z,9.90
2019-04-28T07:58:01.682Z,10.60
2019-04-28T07:59:01.768Z,12.20
2019-04-28T08:00:01.627Z,9.90
2019-04-28T08:01:01.649Z,12.30
2019-04-28T08:02:01.670Z,11.50
2019-04-28T08:03:01.565Z,11.60
2019-04-28T08:04:01.568Z,11.60
2019-04-28T08:05:01.500Z,8.80
2019-04-28T08:06:01.577Z,10.80
2019-04-28T08:07:01.447Z,9.60
2019-04-28T08:08:01.490Z,10.60
2019-04-28T08:09:02.514Z,8.80
2019-04-28T08:10:01.415Z,8.60
2019-04-28T08:11:01.337Z,11.80
2019-04-28T08:12:01.428Z,13.10
2019-04-28T08:13:01.288Z,11.20
2019-04-28T08:14:01.329Z,13.10
2019-04-28T08:15:01.235Z,10.00
2019-04-28T08:16:01.242Z,9.70
2019-04-28T08:17:01.188Z,8.50
2019-04-28T08:18:01.155Z,8.60
2019-04-28T08:19:01.155Z,10.30
2019-04-28T08:20:01.110Z,10.50
2019-04-28T08:21:01.178Z,9.20
2019-04-28T08:22:01.069Z,10.20
2019-04-28T08:23:01.041Z,8.80
2019-04-28T08:24:01.008Z,12.50
2019-04-28T08:25:01.007Z,9.40
2019-04-28T08:26:00.979Z,9.90
2019-04-28T08:27:01.025Z,11.20
2019-04-28T08:28:00.886Z,8.80
2019-04-28T08:29:00.879Z,11.20
2019-04-28T08:30:00.966Z,8.60
2019-04-28T08:31:00.830Z,9.70
2019-04-28T08:32:00.847Z,8.70
2019-04-28T08:33:00.789Z,10.10
2019-04-28T08:34:02.746Z,9.20
2019-04-28T08:35:00.717Z,9.30
2019-04-28T08:36:00.767Z,9.50
2019-04-28T08:37:00.656Z,7.40
2019-04-28T08:38:00.688Z,10.30
2019-04-28T08:39:00.699Z,9.20
2019-04-28T08:40:00.591Z,8.90
2019-04-28T08:41:00.600Z,6.90
2019-04-28T08:42:00.537Z,7.30
2019-04-28T08:43:00.617Z,8.70
2019-04-28T08:44:00.487Z,8.00
2019-04-28T08:45:00.525Z,9.30
2019-04-28T08:46:00.428Z,7.60
2019-04-28T08:47:00.439Z,8.20
2019-04-28T08:48:00.387Z,8.70
2019-04-28T08:49:00.449Z,9.50
2019-04-28T08:50:00.327Z,9.40
2019-04-28T08:51:00.365Z,8.80
2019-04-28T08:52:00.285Z,8.30
2019-04-28T08:53:00.282Z,9.60
2019-04-28T08:54:00.239Z,9.30
2019-04-28T08:55:00.207Z,8.70
2019-04-28T08:56:00.200Z,7.90
2019-04-28T08:57:00.207Z,7.70
2019-04-28T08:58:00.117Z,6.70
2019-04-28T08:59:00.121Z,7.80
2019-04-28T09:00:00.121Z,6.10
2019-04-28T09:01:00.050Z,8.60
2019-04-28T09:02:00.039Z,4.90
2019-04-28T09:02:59.988Z,5.80
2019-04-28T09:04:00.057Z,6.80
2019-04-28T09:04:59.944Z,6.90
2019-04-28T09:06:01.518Z,7.70
2019-04-28T09:06:59.967Z,8.30
2019-04-28T09:07:59.869Z,7.90
2019-04-28T09:08:59.877Z,7.20
2019-04-28T09:09:59.810Z,6.30
2019-04-28T09:10:59.789Z,7.80
2019-04-28T09:11:59.803Z,7.00
2019-04-28T09:12:59.743Z,6.30
2019-04-28T09:13:59.837Z,6.50
2019-04-28T09:14:59.686Z,5.40
2019-04-28T09:15:59.704Z,6.60
2019-04-28T09:16:59.637Z,5.30
2019-04-28T09:17:59.691Z,4.60
2019-04-28T09:18:59.588Z,4.90
2019-04-28T09:19:59.646Z,5.30
2019-04-28T09:20:59.536Z,4.40
2019-04-28T09:21:59.517Z,5.10
2019-04-28T09:22:59.565Z,5.40
2019-04-28T09:23:59.466Z,4.30
2019-04-28T09:24:59.475Z,5.30
2019-04-28T09:25:59.418Z,5.50
2019-04-28T09:26:59.411Z,4.40
2019-04-28T09:27:59.356Z,5.30
2019-04-28T09:28:59.405Z,5.30
2019-04-28T09:29:59.307Z,6.60
2019-04-28T09:30:59.317Z,5.40
2019-04-28T09:31:59.327Z,5.10
2019-04-28T09:32:59.236Z,6.30
2019-04-28T09:33:59.241Z,5.10
2019-04-28T09:34:59.193Z,5.90
2019-04-28T09:35:59.247Z,5.40
2019-04-28T09:36:59.137Z,6.20
2019-04-28T09:37:59.155Z,7.20
2019-04-28T09:38:59.076Z,5.90
2019-04-28T09:39:59.178Z,7.20
2019-04-28T09:40:59.037Z,6.00
2019-04-28T09:41:59.086Z,7.10
2019-04-28T09:42:58.988Z,6.80
2019-04-28T09:43:58.995Z,7.00
2019-04-28T09:45:01.240Z,6.40
2019-04-28T09:45:58.906Z,6.90
2019-04-28T09:46:59.032Z,7.00
2019-04-28T09:47:58.863Z,5.90
2019-04-28T09:48:58.928Z,6.30
2019-04-28T09:49:58.796Z,7.50
2019-04-28T09:50:58.948Z,7.10
2019-04-28T09:51:58.758Z,6.20
2019-04-28T09:52:58.726Z,7.90
2019-04-28T09:53:58.735Z,7.20
2019-04-28T09:54:58.773Z,6.10
2019-04-28T09:55:58.687Z,6.80
2019-04-28T09:56:58.794Z,5.90
2019-04-28T09:57:58.678Z,6.30
2019-04-28T09:58:58.582Z,5.70
2019-04-28T09:59:58.754Z,7.40
2019-04-28T10:00:58.527Z,5.00
2019-04-28T10:01:58.617Z,6.00
2019-04-28T10:02:58.485Z,5.50
2019-04-28T10:03:58.448Z,6.20
2019-04-28T10:04:58.560Z,5.10
2019-04-28T10:05:58.424Z,5.00
2019-04-28T10:06:58.450Z,5.00
2019-04-28T10:07:58.350Z,5.70
2019-04-28T10:08:58.356Z,4.90
2019-04-28T10:09:58.309Z,5.20
2019-04-28T10:10:58.369Z,4.60
2019-04-28T10:11:58.265Z,4.20
2019-04-28T10:12:58.393Z,4.00
2019-04-28T10:13:58.287Z,3.50
2019-04-28T10:14:58.190Z,4.20
2019-04-28T10:15:58.309Z,5.00
2019-04-28T10:16:58.152Z,5.00
2019-04-28T10:17:58.439Z,5.30
2019-04-28T10:18:58.245Z,4.70
2019-04-28T10:19:58.046Z,6.80
2019-04-28T10:20:58.135Z,4.10
2019-04-28T10:21:58.008Z,3.70
2019-04-28T10:22:58.149Z,5.10
2019-04-28T10:23:57.958Z,5.10
2019-04-28T10:24:58.062Z,4.70
2019-04-28T10:25:57.898Z,4.30
2019-04-28T10:26:58.078Z,5.30
2019-04-28T10:27:57.858Z,3.80
2019-04-28T10:28:57.986Z,4.50
2019-04-28T10:29:57.797Z,4.20
2019-04-28T10:30:57.799Z,5.00
2019-04-28T10:31:57.760Z,4.90
2019-04-28T10:32:57.813Z,4.40
2019-04-28T10:33:57.697Z,5.30
2019-04-28T10:34:57.678Z,4.90
2019-04-28T10:35:57.841Z,4.60
2019-04-28T10:36:57.623Z,5.30
2019-04-28T10:37:57.736Z,4.90
2019-04-28T10:38:57.580Z,5.20
2019-04-28T10:39:57.551Z,4.80
2019-04-28T10:40:57.524Z,4.80
2019-04-28T10:41:57.667Z,4.00
2019-04-28T10:42:57.482Z,3.80
2019-04-28T10:43:57.588Z,4.40
2019-04-28T10:44:57.418Z,4.20
2019-04-28T10:45:57.599Z,4.40
2019-04-28T10:46:57.379Z,3.40
2019-04-28T10:47:57.505Z,4.10
2019-04-28T10:48:57.320Z,4.70
2019-04-28T10:49:57.419Z,6.30
2019-04-28T10:50:57.275Z,5.10
2019-04-28T10:51:59.591Z,6.70
2019-04-28T10:52:57.217Z,5.20
2019-04-28T10:53:57.246Z,6.30
2019-04-28T10:54:57.158Z,4.80
2019-04-28T10:55:57.138Z,4.00
2019-04-28T10:56:57.116Z,5.50
2019-04-28T10:57:57.200Z,5.30
2019-04-28T10:58:57.060Z,4.40
2019-04-28T10:59:57.086Z,4.10
2019-04-28T11:00:57.016Z,5.00
2019-04-28T11:01:56.994Z,6.20
2019-04-28T11:02:56.956Z,5.60
2019-04-28T11:03:57.013Z,4.50
2019-04-28T11:05:07.839Z,7.50
2019-04-28T11:05:56.934Z,5.80
2019-04-28T11:06:56.866Z,4.40
2019-04-28T11:07:56.836Z,4.80
2019-04-28T11:08:56.837Z,5.30
2019-04-28T11:09:56.792Z,5.70
2019-04-28T11:10:56.856Z,4.00
2019-04-28T11:11:56.741Z,5.50
2019-04-28T11:12:56.728Z,4.60
2019-04-28T11:13:56.776Z,5.20
2019-04-28T11:14:56.658Z,5.40
2019-04-28T11:15:56.686Z,4.20
2019-04-28T11:16:56.614Z,5.50
2019-04-28T11:17:56.586Z,5.00
2019-04-28T11:18:56.568Z,4.50
2019-04-28T11:19:56.607Z,4.40
2019-04-28T11:20:56.510Z,3.10
2019-04-28T11:21:56.625Z,2.80
2019-04-28T11:22:56.459Z,3.80
2019-04-28T11:23:56.437Z,3.20
2019-04-28T11:24:56.555Z,4.40
2019-04-28T11:25:56.393Z,3.10
2019-04-28T11:26:56.456Z,2.60
2019-04-28T11:27:56.340Z,4.50
2019-04-28T11:28:56.306Z,3.40
2019-04-28T11:29:56.290Z,3.70
2019-04-28T11:30:56.271Z,2.90
2019-04-28T11:31:56.235Z,4.00
2019-04-28T11:32:56.227Z,3.60
2019-04-28T11:33:56.197Z,3.40
2019-04-28T11:34:56.162Z,5.20
2019-04-28T11:35:56.218Z,2.60
2019-04-28T11:36:56.116Z,2.60
2019-04-28T11:37:56.130Z,2.50
2019-04-28T11:38:56.068Z,2.20
2019-04-28T11:39:56.036Z,1.90
2019-04-28T11:40:56.046Z,2.60
2019-04-28T11:41:55.986Z,2.80
2019-04-28T11:42:56.065Z,2.50
2019-04-28T11:43:55.951Z,2.50
2019-04-28T11:44:55.915Z,3.50
2019-04-28T11:45:55.914Z,4.10
2019-04-28T11:46:55.985Z,6.60
2019-04-28T11:47:55.837Z,5.40
2019-04-28T11:48:55.897Z,2.50
2019-04-28T11:49:55.803Z,3.10
2019-04-28T11:50:55.894Z,2.40
2019-04-28T11:51:55.817Z,1.50
2019-04-28T11:52:55.868Z,1.50
2019-04-28T11:53:55.825Z,1.50
2019-04-28T11:54:55.685Z,1.50
2019-04-28T11:55:55.638Z,2.20
2019-04-28T11:56:55.645Z,1.20
2019-04-28T11:57:55.597Z,1.70
2019-04-28T11:58:55.671Z,1.20
2019-04-28T11:59:55.550Z,1.40
2019-04-28T12:00:55.679Z,2.20
2019-04-28T12:01:55.508Z,2.30
2019-04-28T12:02:55.592Z,1.90
2019-04-28T12:03:55.453Z,1.80
2019-04-28T12:04:55.595Z,1.70
2019-04-28T12:05:55.396Z,2.30
2019-04-28T12:06:55.376Z,1.90
2019-04-28T12:07:55.349Z,2.30
2019-04-28T12:08:55.428Z,2.60
2019-04-28T12:10:04.802Z,2.80
2019-04-28T12:10:55.288Z,1.70
2019-04-28T12:11:55.271Z,1.60
2019-04-28T12:12:55.249Z,1.50
2019-04-28T12:13:55.359Z,2.10
2019-04-28T12:14:55.185Z,1.70
2019-04-28T12:15:55.267Z,1.50
2019-04-28T12:16:55.136Z,1.40
2019-04-28T12:17:55.117Z,1.30
2019-04-28T12:18:55.190Z,1.80
2019-04-28T12:19:55.075Z,1.60
2019-04-28T12:20:55.198Z,1.80
2019-04-28T12:21:55.027Z,2.40
2019-04-28T12:22:54.999Z,3.40
2019-04-28T12:23:55.116Z,2.70
2019-04-28T12:24:54.955Z,2.30
2019-04-28T12:25:55.049Z,3.20
2019-04-28T12:26:54.908Z,2.50
2019-04-28T12:27:54.886Z,2.10
2019-04-28T12:28:54.860Z,2.20
2019-04-28T12:29:54.957Z,2.20
2019-04-28T12:30:54.825Z,2.50
2019-04-28T12:31:54.966Z,3.10
2019-04-28T12:32:54.820Z,3.60
2019-04-28T12:33:54.731Z,3.00
2019-04-28T12:34:54.888Z,4.20
2019-04-28T12:35:54.704Z,3.00
2019-04-28T12:36:54.813Z,3.00
2019-04-28T12:37:54.658Z,2.90
2019-04-28T12:38:54.629Z,3.10
2019-04-28T12:39:54.596Z,3.00
2019-04-28T12:40:54.732Z,2.90
2019-04-28T12:41:54.550Z,3.20
2019-04-28T12:42:54.640Z,3.40
2019-04-28T12:43:54.658Z,4.40
2019-04-28T12:44:54.495Z,5.70
2019-04-28T12:45:54.656Z,3.20
2019-04-28T12:46:54.436Z,4.40
2019-04-28T12:47:54.578Z,3.00
2019-04-28T12:48:54.380Z,3.40
2019-04-28T12:49:54.367Z,2.60
2019-04-28T12:50:54.499Z,3.20
2019-04-28T12:51:54.307Z,3.60
2019-04-28T12:52:54.508Z,3.30
2019-04-28T12:53:54.272Z,3.30
2019-04-28T12:54:54.253Z,4.00
2019-04-28T12:55:54.227Z,3.50
2019-04-28T12:56:54.331Z,3.40
2019-04-28T12:57:54.166Z,4.70
2019-04-28T12:58:54.286Z,4.20
2019-04-28T12:59:54.152Z,3.60
2019-04-28T13:00:54.097Z,4.00
2019-04-28T13:01:54.181Z,4.00